CheckWX is a tool to help pilots better visualize weather data.  It is not intended as a substitute for an official pre-flight weather briefing.

07:32:20 UTC

MMUN TAF
Cancún International Airport
Cancún, Mexico
TAF MMUN 170503Z 1706/1812 10006KT P6SM SCT015 SCT250 TX32/1719Z TN25/1712Z FM171800 09010KT P6SM SCT015 SCT090 BKN250 BECMG 1805/1807 12006KT SCT250

Jun-17@
06:00 UTC

Jun-17 @ 06:00 UTC

Jun-17@
18:00 UTC

Jun-17 @ 18:00 UTC

TAF MMUN 170503Z 1706/1812 10006KT P6SM SCT015 SCT250 TX32/1719Z TN25/1712Z
Wind
  • 100° at 6 KTS
Cloud Levels
  • Scattered at 1,500' AGL
  • Scattered at 25,000' AGL

Jun-17@
18:00 UTC

Jun-17 @ 18:00 UTC

Jun-18@
05:00 UTC

Jun-18 @ 05:00 UTC

FM171800 09010KT P6SM SCT015 SCT090 BKN250

From

From Standard forecast or significant change

Wind
  • 090° at 10 KTS
Cloud Levels
  • Scattered at 1,500' AGL
  • Scattered at 9,000' AGL
  • Broken at 25,000' AGL

Jun-18@
05:00 UTC

Jun-18 @ 05:00 UTC

Jun-18@
12:00 UTC

Jun-18 @ 12:00 UTC

BECMG 1805/1807 12006KT SCT250

Becoming

Becoming Conditions expected by Tue, Jun 18, 2019 @ 07:00 UTC

Wind
  • 120° at 6 KTS
Cloud Levels
  • Scattered at 25,000' AGL